Time;durP1;ratioP1;P1;durP2;ratioP2;P2;SDS_P1;SDS_P2;PMS_P1;PMS_P2;Temp;Humidity;BMP_temperature;BMP_pressure;BME280_temperature;BME280_humidity;BME280_pressure;Samples;Min_cycle;Max_cycle;Signal;HPM_P1;HPM_P2
2023/12/06 00:02:43;;;;;;;82.10;48.70;;;;;;;;;;103687;1291;544963;-71
2023/12/06 00:06:19;;;;;;;80.00;48.50;;;;;;;;;;103830;1291;545334;-72
2023/12/06 00:09:59;;;;;;;75.10;47.10;;;;;;;;;;103765;1289;544830;-71
2023/12/06 00:13:34;;;;;;;68.40;41.60;;;;;;;;;;103835;1291;545755;-72
2023/12/06 00:17:11;;;;;;;70.90;40.80;;;;;;;;;;103573;1297;544803;-72
2023/12/06 00:20:49;;;;;;;76.20;47.30;;;;;;;;;;104351;1283;545907;-72
2023/12/06 00:24:22;;;;;;;79.30;47.60;;;;;;;;;;103898;1288;545452;-71
2023/12/06 00:28:04;;;;;;;78.80;47.50;;;;;;;;;;103865;1292;545766;-72
2023/12/06 00:31:41;;;;;;;98.10;54.90;;;;;;;;;;103878;1290;544963;-71
2023/12/06 00:35:19;;;;;;;84.00;47.90;;;;;;;;;;103880;1291;545667;-72
2023/12/06 00:38:56;;;;;;;88.50;51.20;;;;;;;;;;103841;1296;545365;-72
2023/12/06 00:42:54;;;;;;;88.90;52.20;;;;;;;;;;103537;1295;545015;-71
2023/12/06 00:46:11;;;;;;;90.30;53.00;;;;;;;;;;103591;1293;544875;-73
2023/12/06 00:49:49;;;;;;;92.40;53.30;;;;;;;;;;104685;1282;545670;-71
2023/12/06 00:53:26;;;;;;;87.80;49.20;;;;;;;;;;103652;1292;544944;-72
2023/12/06 00:56:59;;;;;;;93.60;50.30;;;;;;;;;;103845;1295;545092;-72
2023/12/06 01:00:41;;;;;;;88.20;51.50;;;;;;;;;;103734;1289;544743;-73
2023/12/06 01:04:18;;;;;;;86.30;52.10;;;;;;;;;;103840;1291;545079;-71
2023/12/06 01:07:56;;;;;;;90.30;52.90;;;;;;;;;;103821;1291;545831;-73
2023/12/06 01:11:34;;;;;;;83.80;48.60;;;;;;;;;;103895;1292;545240;-72
2023/12/06 01:15:10;;;;;;;86.90;48.60;;;;;;;;;;103843;1288;545621;-72
2023/12/06 01:18:48;;;;;;;87.10;50.60;;;;;;;;;;103886;1295;545234;-73
2023/12/06 01:22:33;;;;;;;89.50;51.60;;;;;;;;;;103636;1291;545241;-72
2023/12/06 01:26:20;;;;;;;88.70;51.40;;;;;;;;;;104206;1286;544985;-72
2023/12/06 01:29:41;;;;;;;69.40;41.10;;;;;;;;;;103892;1288;545613;-72
2023/12/06 01:33:18;;;;;;;57.00;35.10;;;;;;;;;;103805;1289;545918;-72
2023/12/06 01:36:58;;;;;;;54.20;33.40;;;;;;;;;;103852;1291;545954;-72
2023/12/06 01:40:36;;;;;;;58.40;36.90;;;;;;;;;;103818;1288;545018;-72
2023/12/06 01:44:10;;;;;;;69.50;41.50;;;;;;;;;;103673;1291;545032;-72
2023/12/06 01:47:59;;;;;;;;;;;;;;;;;;;;;
2023/12/06 01:51:30;;;;;;;51.20;31.50;;;;;;;;;;103797;1289;545702;-72
2023/12/06 01:55:03;;;;;;;47.80;31.20;;;;;;;;;;103780;1292;545026;-71
2023/12/06 01:58:42;;;;;;;52.20;33.20;;;;;;;;;;103860;1289;545001;-71
2023/12/06 02:02:17;;;;;;;52.20;36.40;;;;;;;;;;103820;1292;544973;-73
2023/12/06 02:05:58;;;;;;;53.00;33.80;;;;;;;;;;103810;1293;545055;-72
2023/12/06 02:09:33;;;;;;;49.40;32.40;;;;;;;;;;103809;1289;545002;-72
2023/12/06 02:16:44;;;;;;;52.30;35.70;;;;;;;;;;103919;1292;545893;-72
2023/12/06 02:20:25;;;;;;;52.90;35.10;;;;;;;;;;103801;1292;544828;-72
2023/12/06 02:24:02;;;;;;;53.90;31.90;;;;;;;;;;103839;1290;545173;-72
2023/12/06 02:27:44;;;;;;;56.00;32.70;;;;;;;;;;103596;1295;544917;-72
2023/12/06 02:31:28;;;;;;;;;;;;;;;;;;;;;
2023/12/06 02:34:56;;;;;;;59.60;35.50;;;;;;;;;;103606;1292;545212;-72
2023/12/06 02:38:35;;;;;;;60.30;36.80;;;;;;;;;;104268;1285;544980;-72
2023/12/06 02:42:10;;;;;;;54.10;32.90;;;;;;;;;;104098;1286;545263;-72
2023/12/06 02:45:57;;;;;;;;;;;;;;;;;;;;;
2023/12/06 02:49:27;;;;;;;52.80;31.80;;;;;;;;;;103681;1291;545282;-72
2023/12/06 02:53:02;;;;;;;60.70;37.40;;;;;;;;;;104142;1285;544738;-73
2023/12/06 02:56:40;;;;;;;56.70;35.30;;;;;;;;;;103598;1306;545598;-73
2023/12/06 03:00:17;;;;;;;56.20;33.50;;;;;;;;;;103904;1288;545430;-72
2023/12/06 03:03:55;;;;;;;50.30;29.40;;;;;;;;;;103818;1292;545089;-72
2023/12/06 03:07:34;;;;;;;46.40;29.60;;;;;;;;;;103622;1295;545807;-72
2023/12/06 03:11:05;;;;;;;49.90;31.40;;;;;;;;;;103958;1289;544826;-73
2023/12/06 03:14:50;;;;;;;52.20;33.50;;;;;;;;;;103589;1293;545073;-72
2023/12/06 03:18:24;;;;;;;51.70;31.40;;;;;;;;;;104104;1289;545617;-72
2023/12/06 03:22:02;;;;;;;47.10;29.60;;;;;;;;;;104008;1288;544784;-73
2023/12/06 03:26:30;;;;;;;50.80;32.00;;;;;;;;;;103858;1294;549357;-73
2023/12/06 03:29:17;;;;;;;50.10;29.90;;;;;;;;;;103994;1288;544998;-73
2023/12/06 03:32:54;;;;;;;52.40;32.30;;;;;;;;;;103940;1289;545588;-72
2023/12/06 03:36:34;;;;;;;55.40;32.10;;;;;;;;;;103842;1292;545448;-73
2023/12/06 03:40:09;;;;;;;60.80;34.10;;;;;;;;;;104024;1288;545387;-73
2023/12/06 03:43:53;;;;;;;58.30;33.80;;;;;;;;;;103860;1289;544879;-73
2023/12/06 03:47:26;;;;;;;58.20;34.90;;;;;;;;;;103806;1289;545621;-73
2023/12/06 03:51:01;;;;;;;61.80;36.90;;;;;;;;;;103786;1292;545795;-72
2023/12/06 03:54:42;;;;;;;55.60;33.70;;;;;;;;;;103796;1292;544963;-73
2023/12/06 03:58:16;;;;;;;55.30;32.50;;;;;;;;;;103661;1292;545544;-72
2023/12/06 04:01:54;;;;;;;54.60;32.20;;;;;;;;;;103802;1292;545671;-72
2023/12/06 04:05:31;;;;;;;58.00;35.10;;;;;;;;;;103798;1289;545384;-72
2023/12/06 04:09:14;;;;;;;65.20;37.70;;;;;;;;;;104107;1289;545510;-72
2023/12/06 04:12:46;;;;;;;61.40;37.30;;;;;;;;;;103583;1291;544840;-73
2023/12/06 04:16:23;;;;;;;60.80;36.30;;;;;;;;;;104361;1294;545609;-73
2023/12/06 04:20:01;;;;;;;63.60;38.50;;;;;;;;;;103807;1290;545009;-73
2023/12/06 04:23:39;;;;;;;66.90;41.50;;;;;;;;;;103706;1289;545104;-72
2023/12/06 04:27:15;;;;;;;69.30;41.80;;;;;;;;;;103989;1291;544839;-73
2023/12/06 04:30:55;;;;;;;63.50;35.70;;;;;;;;;;103839;1291;544974;-73
2023/12/06 04:34:32;;;;;;;66.40;38.20;;;;;;;;;;103542;1297;544811;-73
2023/12/06 04:38:29;;;;;;;78.70;45.50;;;;;;;;;;103803;1289;544958;-73
2023/12/06 04:41:45;;;;;;;84.40;48.20;;;;;;;;;;103805;1289;545541;-73
2023/12/06 04:45:32;;;;;;;87.10;49.70;;;;;;;;;;103586;1303;546232;-73
2023/12/06 04:49:06;;;;;;;83.20;46.90;;;;;;;;;;103679;1290;548533;-72
2023/12/06 04:52:38;;;;;;;76.70;44.70;;;;;;;;;;103868;1289;545832;-72
2023/12/06 04:56:26;;;;;;;72.50;45.60;;;;;;;;;;103795;1289;544811;-72
2023/12/06 04:59:53;;;;;;;85.80;49.60;;;;;;;;;;103860;1291;544906;-72
2023/12/06 05:03:31;;;;;;;101.50;56.20;;;;;;;;;;103773;1289;544805;-72
2023/12/06 05:07:04;;;;;;;101.10;55.60;;;;;;;;;;103831;1289;545436;-72
2023/12/06 05:10:48;;;;;;;95.50;49.80;;;;;;;;;;104069;1286;544787;-73
2023/12/06 05:14:23;;;;;;;122.10;62.70;;;;;;;;;;103381;1300;545162;-72
2023/12/06 05:18:01;;;;;;;134.60;72.40;;;;;;;;;;103667;1291;544868;-73
2023/12/06 05:21:38;;;;;;;149.90;80.30;;;;;;;;;;103859;1289;545513;-73
2023/12/06 05:25:21;;;;;;;125.40;69.30;;;;;;;;;;104042;1286;547845;-72
2023/12/06 05:28:54;;;;;;;119.80;63.90;;;;;;;;;;104022;1288;545079;-73
2023/12/06 05:32:54;;;;;;;91.10;50.70;;;;;;;;;;103948;1292;547959;-73
2023/12/06 05:36:08;;;;;;;111.80;60.20;;;;;;;;;;103825;1290;545539;-72
2023/12/06 05:39:45;;;;;;;108.70;60.60;;;;;;;;;;103816;1288;544783;-73
2023/12/06 05:47:00;;;;;;;109.90;58.10;;;;;;;;;;104260;1285;544829;-72
2023/12/06 05:54:18;;;;;;;99.90;55.30;;;;;;;;;;103793;1289;545958;-73
2023/12/06 05:57:53;;;;;;;106.90;59.50;;;;;;;;;;103798;1292;545074;-72
2023/12/06 06:01:33;;;;;;;113.10;62.50;;;;;;;;;;103833;1292;544740;-73
2023/12/06 06:05:08;;;;;;;121.10;60.80;;;;;;;;;;103860;1291;544982;-72
2023/12/06 06:08:48;;;;;;;127.50;59.30;;;;;;;;;;103819;1291;545068;-72
2023/12/06 06:12:23;;;;;;;140.00;64.30;;;;;;;;;;103788;1293;545491;-72
2023/12/06 06:16:00;;;;;;;135.60;69.30;;;;;;;;;;103811;1291;544625;-73
2023/12/06 06:19:37;;;;;;;129.10;69.70;;;;;;;;;;103823;1290;545449;-72
2023/12/06 06:23:11;;;;;;;132.10;70.90;;;;;;;;;;103732;1289;545202;-73
2023/12/06 06:27:03;;;;;;;110.90;57.20;;;;;;;;;;103897;1288;544844;-72
2023/12/06 06:30:30;;;;;;;94.90;51.50;;;;;;;;;;103748;1291;545233;-74
2023/12/06 06:34:38;;;;;;;;;;;;;;;;;;;;;
2023/12/06 06:37:46;;;;;;;93.90;56.40;;;;;;;;;;103836;1289;545517;-72
2023/12/06 06:41:24;;;;;;;100.80;61.80;;;;;;;;;;103812;1292;544915;-72
2023/12/06 06:45:02;;;;;;;88.10;52.70;;;;;;;;;;103683;1291;544785;-72
2023/12/06 06:48:37;;;;;;;74.10;43.90;;;;;;;;;;103541;1293;545024;-72
2023/12/06 06:52:15;;;;;;;73.80;45.30;;;;;;;;;;103701;1290;545363;-72
2023/12/06 06:56:12;;;;;;;75.90;47.30;;;;;;;;;;103817;1292;544806;-71
2023/12/06 06:59:29;;;;;;;75.20;46.50;;;;;;;;;;104225;1284;544731;-72
2023/12/06 07:03:26;;;;;;;71.10;42.80;;;;;;;;;;104325;1285;549077;-72
2023/12/06 07:06:50;;;;;;;66.00;41.00;;;;;;;;;;104360;1285;544806;-73
2023/12/06 07:10:22;;;;;;;78.70;47.90;;;;;;;;;;103830;1292;545036;-72
2023/12/06 07:13:59;;;;;;;97.50;57.10;;;;;;;;;;103830;1291;545029;-72
2023/12/06 07:17:37;;;;;;;156.40;82.70;;;;;;;;;;103564;1292;546242;-72
2023/12/06 07:21:14;;;;;;;154.00;85.10;;;;;;;;;;103918;1289;544740;-73
2023/12/06 07:24:52;;;;;;;136.90;72.50;;;;;;;;;;103945;1288;545694;-70
2023/12/06 07:28:30;;;;;;;112.30;62.50;;;;;;;;;;103807;1289;545015;-72
2023/12/06 07:32:07;;;;;;;113.00;62.60;;;;;;;;;;103843;1290;546370;-72
2023/12/06 07:35:44;;;;;;;103.30;58.70;;;;;;;;;;103814;1289;545011;-71
2023/12/06 07:39:21;;;;;;;103.50;60.80;;;;;;;;;;103769;1301;544970;-73
2023/12/06 07:42:59;;;;;;;104.80;60.40;;;;;;;;;;104244;1285;544936;-73
2023/12/06 07:46:37;;;;;;;96.20;55.20;;;;;;;;;;103885;1292;544642;-72
2023/12/06 07:50:14;;;;;;;95.50;54.50;;;;;;;;;;103810;1292;544987;-73
2023/12/06 07:53:52;;;;;;;89.30;55.80;;;;;;;;;;103868;1295;545042;-72
2023/12/06 07:57:50;;;;;;;101.80;60.20;;;;;;;;;;103781;1289;544791;-72
2023/12/06 08:01:05;;;;;;;95.10;57.30;;;;;;;;;;104041;1288;544565;-72
2023/12/06 08:05:05;;;;;;;100.20;60.90;;;;;;;;;;103886;1292;545085;-72
2023/12/06 08:08:24;;;;;;;95.50;54.80;;;;;;;;;;103852;1292;545995;-73
2023/12/06 08:11:59;;;;;;;98.80;55.70;;;;;;;;;;103810;1301;545054;-72
2023/12/06 08:15:37;;;;;;;100.80;59.50;;;;;;;;;;103817;1289;545050;-73
2023/12/06 08:19:13;;;;;;;100.30;61.00;;;;;;;;;;103862;1291;545919;-72
2023/12/06 08:22:52;;;;;;;102.60;63.50;;;;;;;;;;103826;1290;545315;-73
2023/12/06 08:26:31;;;;;;;98.40;60.50;;;;;;;;;;103837;1288;545509;-72
2023/12/06 08:30:06;;;;;;;86.50;51.60;;;;;;;;;;103803;1292;544987;-72
2023/12/06 08:33:43;;;;;;;77.50;47.20;;;;;;;;;;103800;1289;545718;-71
2023/12/06 08:37:21;;;;;;;89.00;54.60;;;;;;;;;;103863;1292;544766;-72
2023/12/06 08:41:09;;;;;;;;;;;;;;;;;;;;;
2023/12/06 08:44:36;;;;;;;119.70;65.80;;;;;;;;;;103911;1290;545842;-74
2023/12/06 08:48:16;;;;;;;123.90;66.90;;;;;;;;;;103792;1291;544851;-72
2023/12/06 08:51:54;;;;;;;108.30;61.20;;;;;;;;;;104061;1285;545373;-72
2023/12/06 08:55:29;;;;;;;111.20;62.70;;;;;;;;;;103804;1291;545482;-73
2023/12/06 08:59:08;;;;;;;118.60;69.50;;;;;;;;;;103768;1288;548400;-72
2023/12/06 09:02:43;;;;;;;105.50;63.10;;;;;;;;;;103783;1291;544798;-74
2023/12/06 09:06:20;;;;;;;86.30;55.60;;;;;;;;;;103810;1291;545309;-74
2023/12/06 09:09:58;;;;;;;82.90;52.80;;;;;;;;;;104169;1289;545775;-73
2023/12/06 09:13:37;;;;;;;87.50;55.10;;;;;;;;;;103819;1291;544742;-74
2023/12/06 09:17:13;;;;;;;105.20;57.30;;;;;;;;;;103641;1298;546002;-75
2023/12/06 09:20:52;;;;;;;102.80;56.50;;;;;;;;;;103821;1295;544938;-76
2023/12/06 09:24:28;;;;;;;106.40;63.80;;;;;;;;;;103786;1291;544758;-75
2023/12/06 09:28:06;;;;;;;103.60;63.30;;;;;;;;;;104167;1286;544807;-74
2023/12/06 09:31:43;;;;;;;102.90;63.50;;;;;;;;;;103797;1289;544924;-74
2023/12/06 09:35:20;;;;;;;100.20;62.00;;;;;;;;;;103546;1293;544942;-76
2023/12/06 09:42:37;;;;;;;117.10;68.30;;;;;;;;;;103836;1292;544786;-77
2023/12/06 09:46:13;;;;;;;130.20;75.60;;;;;;;;;;103864;1289;545007;-75
2023/12/06 09:49:54;;;;;;;131.80;69.80;;;;;;;;;;103842;1292;544949;-76
2023/12/06 09:53:28;;;;;;;96.40;57.40;;;;;;;;;;103853;1288;545169;-77
2023/12/06 09:57:05;;;;;;;98.60;62.00;;;;;;;;;;103869;1292;544927;-77
2023/12/06 10:00:47;;;;;;;111.90;67.80;;;;;;;;;;103787;1292;545034;-76
2023/12/06 10:04:20;;;;;;;134.70;77.70;;;;;;;;;;103774;1291;544912;-78
2023/12/06 10:08:08;;;;;;;154.50;88.10;;;;;;;;;;103545;1295;544747;-76
2023/12/06 10:11:38;;;;;;;168.60;94.80;;;;;;;;;;103757;1289;545952;-77
2023/12/06 10:15:36;;;;;;;146.50;86.80;;;;;;;;;;103681;1290;548427;-78
2023/12/06 10:19:01;;;;;;;139.00;82.60;;;;;;;;;;103565;1293;545114;-78
2023/12/06 10:22:36;;;;;;;138.50;87.20;;;;;;;;;;104328;1288;549212;-79
2023/12/06 10:26:15;;;;;;;112.70;73.90;;;;;;;;;;103129;1300;545557;-79
2023/12/06 10:30:04;;;;;;;114.20;76.70;;;;;;;;;;103797;1292;545525;-79
2023/12/06 10:33:20;;;;;;;110.60;76.40;;;;;;;;;;103793;1289;544998;-78
2023/12/06 10:37:06;;;;;;;114.40;75.10;;;;;;;;;;103649;1291;548156;-78
2023/12/06 10:40:42;;;;;;;98.90;64.10;;;;;;;;;;103850;1292;545063;-79
2023/12/06 10:44:41;;;;;;;96.50;62.50;;;;;;;;;;103547;1292;545345;-79
2023/12/06 10:48:20;;;;;;;144.80;86.00;;;;;;;;;;103522;1296;545369;-83
2023/12/06 10:51:38;;;;;;;159.90;95.50;;;;;;;;;;103622;1292;549121;-81
2023/12/06 10:55:12;;;;;;;145.80;89.30;;;;;;;;;;103687;1291;545764;-80
2023/12/06 10:59:15;;;;;;;;;;;;;;;;;;;;;
2023/12/06 11:02:35;;;;;;;124.40;78.30;;;;;;;;;;103688;1289;549209;-79
2023/12/06 11:06:31;;;;;;;126.10;77.60;;;;;;;;;;103658;1294;548007;-82
2023/12/06 11:10:08;;;;;;;98.60;61.30;;;;;;;;;;103425;1298;549227;-80
2023/12/06 11:13:29;;;;;;;108.80;69.70;;;;;;;;;;103632;1289;549398;-80
2023/12/06 11:17:31;;;;;;;99.90;65.00;;;;;;;;;;103664;1298;548108;-81
2023/12/06 11:20:39;;;;;;;83.10;54.00;;;;;;;;;;103710;1302;549465;-79
2023/12/06 11:24:44;;;;;;;;;;;;;;;;;;;;;
2023/12/06 11:28:09;;;;;;;84.40;55.00;;;;;;;;;;104546;1280;547888;-80
2023/12/06 11:32:03;;;;;;;;;;;;;;;;;;;;;
2023/12/06 11:35:09;;;;;;;112.20;67.30;;;;;;;;;;103812;1292;547886;-84
2023/12/06 11:38:42;;;;;;;102.70;64.20;;;;;;;;;;103619;1294;548287;-80
2023/12/06 11:42:45;;;;;;;98.70;64.40;;;;;;;;;;103989;1289;549219;-81
2023/12/06 11:46:33;;;;;;;;;;;;;;;;;;;;;
2023/12/06 11:50:21;;;;;;;;;;;;;;;;;;;;;
2023/12/06 12:01:46;;;;;;;;;;;;;;;;;;;;;
2023/12/06 12:16:46;;;;;;;;;;;;;;;;;;;;;
2023/12/06 12:20:15;;;;;;;;;;;;;;;;;;;;;
2023/12/06 12:24:05;;;;;;;;;;;;;;;;;;;;;
2023/12/06 12:31:38;;;;;;;117.00;68.70;;;;;;;;;;103770;1295;548148;-83
2023/12/06 12:39:03;;;;;;;114.20;67.40;;;;;;;;;;103929;1292;547879;-83
2023/12/06 12:42:43;;;;;;;119.40;72.40;;;;;;;;;;104193;1286;549828;-85
2023/12/06 12:46:35;;;;;;;105.10;65.00;;;;;;;;;;103895;1289;545572;-83
2023/12/06 12:53:46;;;;;;;107.70;63.80;;;;;;;;;;103986;1289;548077;-83
2023/12/06 12:57:53;;;;;;;;;;;;;;;;;;;;;
2023/12/06 13:05:02;;;;;;;126.00;79.40;;;;;;;;;;104013;1292;548077;-82
2023/12/06 13:08:57;;;;;;;136.00;87.00;;;;;;;;;;103666;1294;548138;-81
2023/12/06 13:12:23;;;;;;;149.20;88.90;;;;;;;;;;103823;1292;548101;-87
2023/12/06 13:19:30;;;;;;;183.80;121.60;;;;;;;;;;103998;1290;547823;-81
2023/12/06 13:27:21;;;;;;;106.50;70.90;;;;;;;;;;103794;1292;545454;-81
2023/12/06 13:30:34;;;;;;;112.60;70.90;;;;;;;;;;104229;1295;547981;-81
2023/12/06 13:34:04;;;;;;;111.50;71.80;;;;;;;;;;103960;1294;547915;-80
2023/12/06 13:38:03;;;;;;;;;;;;;;;;;;;;;
2023/12/06 13:42:24;;;;;;;125.30;80.60;;;;;;;;;;104075;1289;546887;-80
2023/12/06 13:45:59;;;;;;;135.60;84.80;;;;;;;;;;103835;1293;547984;-80
2023/12/06 13:49:23;;;;;;;127.80;77.30;;;;;;;;;;104086;1294;545442;-88
2023/12/06 13:53:29;;;;;;;;;;;;;;;;;;;;;
2023/12/06 13:57:06;;;;;;;;;;;;;;;;;;;;;
2023/12/06 14:00:55;;;;;;;;;;;;;;;;;;;;;
2023/12/06 14:04:38;;;;;;;;;;;;;;;;;;;;;
2023/12/06 14:08:17;;;;;;;;;;;;;;;;;;;;;
2023/12/06 14:11:59;;;;;;;;;;;;;;;;;;;;;
2023/12/06 14:22:57;;;;;;;163.60;102.60;;;;;;;;;;104641;1286;547769;-80
2023/12/06 14:26:26;;;;;;;;;;;;;;;;;;;;;
2023/12/06 14:30:16;;;;;;;138.60;86.10;;;;;;;;;;103915;1289;549138;-80
2023/12/06 14:33:53;;;;;;;142.30;86.20;;;;;;;;;;103803;1293;549282;-80
2023/12/06 14:37:17;;;;;;;;;;;;;;;;;;;;;
2023/12/06 14:41:16;;;;;;;;;;;;;;;;;;;;;
2023/12/06 14:44:43;;;;;;;;;;;;;;;;;;;;;
2023/12/06 14:48:50;;;;;;;180.10;116.80;;;;;;;;;;103961;1298;546752;-83
2023/12/06 14:52:04;;;;;;;239.40;147.40;;;;;;;;;;103836;1298;547847;-82
2023/12/06 15:07:22;;;;;;;138.20;83.60;;;;;;;;;;103834;1294;548083;-84
2023/12/06 15:11:06;;;;;;;123.80;76.20;;;;;;;;;;104420;1286;548228;-81
2023/12/06 15:14:50;;;;;;;;;;;;;;;;;;;;;
2023/12/06 15:22:03;;;;;;;125.90;81.50;;;;;;;;;;103992;1289;548448;-82
2023/12/06 15:26:13;;;;;;;;;;;;;;;;;;;;;
2023/12/06 15:32:46;;;;;;;120.70;79.70;;;;;;;;;;104518;1292;545838;-82
2023/12/06 15:40:37;;;;;;;;;;;;;;;;;;;;;
2023/12/06 15:44:10;;;;;;;161.10;103.80;;;;;;;;;;103963;1291;546203;-85
2023/12/06 15:47:58;;;;;;;;;;;;;;;;;;;;;
2023/12/06 15:51:40;;;;;;;155.20;90.90;;;;;;;;;;103937;1292;548378;-82
2023/12/06 15:55:27;;;;;;;;;;;;;;;;;;;;;
2023/12/06 16:02:34;;;;;;;157.90;102.50;;;;;;;;;;104587;1289;548096;-83
2023/12/06 16:06:51;;;;;;;;;;;;;;;;;;;;;
2023/12/06 16:14:51;;;;;;;;;;;;;;;;;;;;;
2023/12/06 16:22:23;;;;;;;;;;;;;;;;;;;;;
2023/12/06 16:25:18;;;;;;;162.30;98.70;;;;;;;;;;103750;1294;547787;-82
2023/12/06 16:29:33;;;;;;;150.20;92.80;;;;;;;;;;104274;1291;545631;-82
2023/12/06 16:44:13;;;;;;;448.40;200.10;;;;;;;;;;104114;1289;546236;-81
2023/12/06 16:48:09;;;;;;;;;;;;;;;;;;;;;
2023/12/06 16:51:52;;;;;;;;;;;;;;;;;;;;;
2023/12/06 16:55:37;;;;;;;406.10;172.50;;;;;;;;;;103892;1295;548087;-82
2023/12/06 16:59:34;;;;;;;;;;;;;;;;;;;;;
2023/12/06 17:03:01;;;;;;;157.30;89.80;;;;;;;;;;103930;1292;545393;-81
2023/12/06 17:07:29;;;;;;;161.50;97.10;;;;;;;;;;104004;1296;545175;-82
2023/12/06 17:18:55;;;;;;;;;;;;;;;;;;;;;
2023/12/06 17:22:51;;;;;;;;;;;;;;;;;;;;;
2023/12/06 17:30:11;;;;;;;236.10;133.70;;;;;;;;;;104114;1291;545244;-85
2023/12/06 17:34:16;;;;;;;218.70;117.80;;;;;;;;;;104428;1294;545374;-83
2023/12/06 17:46:49;;;;;;;160.30;100.10;;;;;;;;;;104008;1292;545408;-83
2023/12/06 17:50:35;;;;;;;158.30;92.40;;;;;;;;;;103887;1292;546659;-84
2023/12/06 17:54:38;;;;;;;;;;;;;;;;;;;;;
2023/12/06 18:05:49;;;;;;;;;;;;;;;;;;;;;
2023/12/06 18:09:33;;;;;;;;;;;;;;;;;;;;;
2023/12/06 18:13:46;;;;;;;137.80;85.00;;;;;;;;;;104103;1289;545194;-85
2023/12/06 18:21:59;;;;;;;184.70;109.60;;;;;;;;;;104024;1295;545446;-83
2023/12/06 18:40:27;;;;;;;;;;;;;;;;;;;;;
2023/12/06 18:43:44;;;;;;;;;;;;;;;;;;;;;
2023/12/06 18:47:36;;;;;;;;;;;;;;;;;;;;;
2023/12/06 18:51:05;;;;;;;;;;;;;;;;;;;;;
2023/12/06 18:54:43;;;;;;;145.60;94.40;;;;;;;;;;103961;1292;549308;-82
2023/12/06 18:58:22;;;;;;;134.40;84.60;;;;;;;;;;104289;1291;545790;-81
2023/12/06 19:12:37;;;;;;;;;;;;;;;;;;;;;
2023/12/06 19:16:02;;;;;;;;;;;;;;;;;;;;;
2023/12/06 19:20:58;;;;;;;;;;;;;;;;;;;;;
2023/12/06 19:32:14;;;;;;;;;;;;;;;;;;;;;
2023/12/06 19:35:57;;;;;;;124.00;80.40;;;;;;;;;;103880;1292;547953;-81
2023/12/06 19:39:50;;;;;;;;;;;;;;;;;;;;;
2023/12/06 19:47:38;;;;;;;128.60;82.70;;;;;;;;;;103987;1291;547782;-82
2023/12/06 19:50:48;;;;;;;;;;;;;;;;;;;;;
2023/12/06 19:55:21;;;;;;;142.80;91.20;;;;;;;;;;104075;1292;547978;-81
2023/12/06 19:58:36;;;;;;;139.30;90.20;;;;;;;;;;103718;1292;547991;-80
2023/12/06 20:06:31;;;;;;;126.10;77.70;;;;;;;;;;103765;1291;548087;-80
2023/12/06 20:10:08;;;;;;;;;;;;;;;;;;;;;
2023/12/06 20:13:50;;;;;;;142.60;91.60;;;;;;;;;;103944;1294;545275;-81
2023/12/06 20:17:40;;;;;;;;;;;;;;;;;;;;;
2023/12/06 20:21:27;;;;;;;136.40;86.60;;;;;;;;;;103955;1301;545580;-80
2023/12/06 20:24:48;;;;;;;;;;;;;;;;;;;;;
2023/12/06 20:28:35;;;;;;;142.60;93.50;;;;;;;;;;103566;1294;547827;-81
2023/12/06 20:32:12;;;;;;;;;;;;;;;;;;;;;
2023/12/06 20:36:01;;;;;;;156.70;96.30;;;;;;;;;;103842;1289;549888;-81
2023/12/06 20:39:43;;;;;;;;;;;;;;;;;;;;;
2023/12/06 20:43:07;;;;;;;157.60;98.00;;;;;;;;;;103865;1290;549088;-81
2023/12/06 20:47:08;;;;;;;149.10;97.40;;;;;;;;;;103587;1292;547892;-80
2023/12/06 20:50:24;;;;;;;153.70;97.40;;;;;;;;;;103627;1292;545324;-81
2023/12/06 20:54:04;;;;;;;;;;;;;;;;;;;;;
2023/12/06 20:58:14;;;;;;;;;;;;;;;;;;;;;
2023/12/06 21:02:09;;;;;;;129.80;83.80;;;;;;;;;;103652;1295;545252;-82
2023/12/06 21:06:02;;;;;;;;;;;;;;;;;;;;;
2023/12/06 21:09:43;;;;;;;132.10;86.50;;;;;;;;;;103487;1297;548107;-83
2023/12/06 21:13:12;;;;;;;132.40;85.80;;;;;;;;;;103986;1295;548972;-83
2023/12/06 21:17:24;;;;;;;;;;;;;;;;;;;;;
2023/12/06 21:24:34;;;;;;;129.30;85.30;;;;;;;;;;103774;1292;547816;-81
2023/12/06 21:28:16;;;;;;;133.10;86.80;;;;;;;;;;103858;1293;545577;-81
2023/12/06 21:31:31;;;;;;;128.30;80.40;;;;;;;;;;103766;1296;547961;-81
2023/12/06 21:35:20;;;;;;;131.40;75.50;;;;;;;;;;103708;1292;546077;-81
2023/12/06 21:39:19;;;;;;;172.50;93.60;;;;;;;;;;103665;1295;546795;-81
2023/12/06 21:42:47;;;;;;;176.70;99.70;;;;;;;;;;103626;1292;548998;-81
2023/12/06 21:47:06;;;;;;;;;;;;;;;;;;;;;
2023/12/06 21:58:14;;;;;;;;;;;;;;;;;;;;;
2023/12/06 22:05:26;;;;;;;;;;;;;;;;;;;;;
2023/12/06 22:09:03;;;;;;;;;;;;;;;;;;;;;
2023/12/06 22:12:20;;;;;;;162.20;93.70;;;;;;;;;;103723;1289;546890;-80
2023/12/06 22:16:18;;;;;;;210.10;112.20;;;;;;;;;;103490;1309;547379;-82
2023/12/06 22:20:07;;;;;;;;;;;;;;;;;;;;;
2023/12/06 22:23:33;;;;;;;168.50;105.70;;;;;;;;;;103657;1292;547987;-82
2023/12/06 22:27:09;;;;;;;150.40;92.10;;;;;;;;;;104291;1284;547953;-81
2023/12/06 22:30:48;;;;;;;157.70;92.30;;;;;;;;;;103802;1289;545000;-81
2023/12/06 22:34:24;;;;;;;148.80;93.50;;;;;;;;;;104035;1288;546247;-81
2023/12/06 22:38:01;;;;;;;151.70;94.70;;;;;;;;;;103423;1294;547796;-81
2023/12/06 22:41:46;;;;;;;158.30;98.90;;;;;;;;;;103640;1299;547822;-81
2023/12/06 22:45:32;;;;;;;158.70;94.90;;;;;;;;;;104164;1289;551432;-82
2023/12/06 22:53:04;;;;;;;158.00;95.10;;;;;;;;;;103800;1292;547915;-80
2023/12/06 23:00:35;;;;;;;;;;;;;;;;;;;;;
2023/12/06 23:08:07;;;;;;;147.30;88.40;;;;;;;;;;103663;1292;549119;-81
2023/12/06 23:11:44;;;;;;;145.80;91.90;;;;;;;;;;103628;1305;545385;-83
2023/12/06 23:14:56;;;;;;;161.30;98.50;;;;;;;;;;103802;1290;545434;-80
2023/12/06 23:18:53;;;;;;;172.90;103.80;;;;;;;;;;103629;1297;547245;-81
2023/12/06 23:22:17;;;;;;;172.00;101.60;;;;;;;;;;103844;1289;548507;-82
2023/12/06 23:26:14;;;;;;;;;;;;;;;;;;;;;
2023/12/06 23:33:41;;;;;;;164.00;100.70;;;;;;;;;;103599;1291;548272;-81
2023/12/06 23:37:26;;;;;;;162.90;101.70;;;;;;;;;;103830;1291;545675;-82
2023/12/06 23:41:08;;;;;;;;;;;;;;;;;;;;;
2023/12/06 23:44:39;;;;;;;154.60;90.00;;;;;;;;;;103749;1291;547761;-81
2023/12/06 23:48:02;;;;;;;164.20;99.90;;;;;;;;;;103707;1290;547793;-81
2023/12/06 23:55:52;;;;;;;;;;;;;;;;;;;;;
2023/12/06 23:59:09;;;;;;;176.80;105.30;;;;;;;;;;103594;1295;545406;-81
